Grand Junction Regional Airport
KGJT : now visible

Airfield :











YOU CAN JOIN US ON...

 
LOGIN :

Register | Disclaimer

   EN    FR    IT 

 









Legend :    VFR   Marginal VFR   IFR   Intensive IFR   Very Intensive IFR
Visi :
Ceiling :
>= 8 km
>= 3000ft
5 to 8 km
1000 to 3000 ft
1500m to 5 km
500 to 1000 ft
800 to 1500m
200 to 500 ft
< 800m
< 200 ft
Symbols :   Thunderstorms  Fog  Heavy snow  Heavy precipitations  Wind > 20 kt






- Airport Elevation : 4858 ft
- IATA code : GJT


KGJT - Grand Junction Regional

CURRENT METAR :
  • 150353Z 30009KT 10SM BKN065 OVC075 02/M03 A2978 RMK AO2 UPB15E25 SLP082 P0000 T00221033

EXPIRED METARs :
  • 150253Z 31008KT 10SM SCT048 SCT065 02/00 A2977 RMK AO2 SLP082 T00220000 53015
  • 150153Z 34006KT 10SM BKN060 OVC120 04/01 A2975 RMK AO2 SLP073 T00390006

TAF KGJT
Valid from the 15 at 00:00 until the 16 at 00:00 UTC


142320Z 1500/1524 29007KT P6SM SHRASN SCT040 OVC090
FM150200 31005KT P6SM VCSH SCT050 BKN100
FM151200 02006KT P6SM SCT050 BKN100



MET'MAP, your aeronautical weather chart ! - Copyright ORBIFLY December 2007 - Disclaimer

ORBIFLY MET'MAP TEAM :

Programming & Development : Alexandra Zaïnal
Concept & original design : Baudouin d'Aumeries
Assistance for programming : Marc-Olivier Méhu
Technical & hardware support : Manuel Goepfert

Contact : metmap@orbifly.com




SOURCES & CREDITS :

   NOAA       Earth
Advisory